Terminal Aerodrome Forecast
Issued by NWS Medford, OR

Home | Current Version | Previous Version | Text Only | Print | Product List | Glossary On
Versions: 1 2 3 4 5 6 7 8 9 10 11 12
000
FTUS46 KMFR 051125
TAFMFR
TAF
KMFR 051125Z 0512/0612 00000KT 4SM BR BKN020 OVC060
     FM051400 VRB03KT P6SM SCT025 OVC060
     FM052100 31010KT P6SM -SHRA SCT035 BKN050
     FM060300 VRB03KT P6SM -SHRA SCT025 OVC040=

USA.gov is the U.S. government's official web portal to all federal, state and local government web resources and services.